createdAt,value
2023-06-01T00:01:39.609Z,89.23
2023-06-01T00:04:06.540Z,90.18
2023-06-01T00:06:33.116Z,90.38
2023-06-01T00:08:59.795Z,90.76
2023-06-01T00:11:26.765Z,91.38
2023-06-01T00:13:53.492Z,92.19
2023-06-01T00:16:20.067Z,92.35
2023-06-01T00:18:46.740Z,93.07
2023-06-01T00:21:13.181Z,92.96
2023-06-01T00:23:42.502Z,92.67
2023-06-01T00:26:09.074Z,92.14
2023-06-01T00:28:35.880Z,91.82
2023-06-01T00:31:02.489Z,92.17
2023-06-01T00:33:29.177Z,93.43
2023-06-01T00:35:55.629Z,94.17
2023-06-01T00:38:22.080Z,93.72
2023-06-01T00:40:51.180Z,94.43
2023-06-01T00:43:20.911Z,95.89
2023-06-01T00:45:47.422Z,96.25
2023-06-01T00:48:16.034Z,96.88
2023-06-01T00:50:45.398Z,97.33
2023-06-01T00:53:17.437Z,97.54
2023-06-01T00:55:44.464Z,97.91
2023-06-01T00:58:10.973Z,97.98
2023-06-01T01:00:38.561Z,98.88
2023-06-01T01:03:11.535Z,99.84
2023-06-01T01:05:38.953Z,100.00
2023-06-01T01:08:28.486Z,100.00
2023-06-01T01:11:07.745Z,100.00
2023-06-01T01:13:48.933Z,100.00
2023-06-01T01:16:31.095Z,100.00
2023-06-01T01:19:33.193Z,100.00
2023-06-01T01:22:21.329Z,100.00
2023-06-01T01:25:16.370Z,100.00
2023-06-01T01:28:05.944Z,100.00
2023-06-01T01:30:32.787Z,100.00
2023-06-01T01:33:00.402Z,100.00
2023-06-01T01:35:27.806Z,100.00
2023-06-01T01:37:55.470Z,100.00
2023-06-01T01:40:22.640Z,100.00
2023-06-01T01:42:50.027Z,100.00
2023-06-01T01:45:17.311Z,100.00
2023-06-01T01:47:59.133Z,100.00
2023-06-01T01:50:29.123Z,100.00
2023-06-01T01:52:56.004Z,100.00
2023-06-01T01:55:24.942Z,100.00
2023-06-01T01:57:53.021Z,100.00
2023-06-01T02:00:20.449Z,100.00
2023-06-01T02:02:47.498Z,100.00
2023-06-01T02:05:14.084Z,100.00
2023-06-01T02:07:40.864Z,100.00
2023-06-01T02:10:08.023Z,100.00
2023-06-01T02:12:34.515Z,100.00
2023-06-01T02:15:01.050Z,100.00
2023-06-01T02:17:28.199Z,100.00
2023-06-01T02:19:54.740Z,100.00
2023-06-01T02:22:21.326Z,100.00
2023-06-01T02:24:48.408Z,100.00
2023-06-01T02:27:14.869Z,100.00
2023-06-01T02:29:41.637Z,100.00
2023-06-01T02:32:08.564Z,100.00
2023-06-01T02:34:37.357Z,100.00
2023-06-01T02:37:03.882Z,100.00
2023-06-01T02:39:30.393Z,100.00
2023-06-01T02:41:56.823Z,100.00
2023-06-01T02:44:23.275Z,100.00
2023-06-01T02:46:49.720Z,100.00
2023-06-01T02:49:16.177Z,100.00
2023-06-01T02:51:42.610Z,100.00
2023-06-01T02:54:09.059Z,100.00
2023-06-01T02:56:35.486Z,100.00
2023-06-01T02:59:02.104Z,100.00
2023-06-01T03:01:28.917Z,100.00
2023-06-01T03:03:55.853Z,100.00
2023-06-01T03:06:24.835Z,100.00
2023-06-01T03:08:51.296Z,100.00
2023-06-01T03:11:17.844Z,100.00
2023-06-01T03:13:44.483Z,100.00
2023-06-01T03:16:11.220Z,100.00
2023-06-01T03:18:39.036Z,100.00
2023-06-01T03:21:06.049Z,100.00
2023-06-01T03:23:32.668Z,100.00
2023-06-01T03:25:59.132Z,100.00
2023-06-01T03:28:25.927Z,100.00
2023-06-01T03:30:52.523Z,100.00
2023-06-01T03:33:19.194Z,100.00
2023-06-01T03:35:45.693Z,100.00
2023-06-01T03:38:12.251Z,100.00
2023-06-01T03:40:38.772Z,100.00
2023-06-01T03:43:05.230Z,100.00
2023-06-01T03:45:31.741Z,100.00
2023-06-01T03:47:58.243Z,100.00
2023-06-01T03:50:24.695Z,100.00
2023-06-01T03:52:51.205Z,100.00
2023-06-01T03:55:17.696Z,100.00
2023-06-01T03:57:44.127Z,100.00
2023-06-01T04:00:20.529Z,100.00
2023-06-01T04:02:55.624Z,100.00
2023-06-01T04:05:23.001Z,100.00
2023-06-01T04:07:51.437Z,100.00
2023-06-01T04:10:18.223Z,100.00
2023-06-01T04:12:45.818Z,100.00
2023-06-01T04:15:14.382Z,100.00
2023-06-01T04:17:41.941Z,100.00
2023-06-01T04:20:11.625Z,100.00
2023-06-01T04:22:38.950Z,100.00
2023-06-01T04:25:08.174Z,100.00
2023-06-01T04:27:37.725Z,100.00
2023-06-01T04:30:08.726Z,100.00
2023-06-01T04:32:38.899Z,100.00
2023-06-01T04:35:06.510Z,100.00
2023-06-01T04:37:38.926Z,100.00
2023-06-01T04:40:10.372Z,100.00
2023-06-01T04:42:42.627Z,100.00
2023-06-01T04:45:12.847Z,100.00
2023-06-01T04:47:40.577Z,100.00
2023-06-01T04:50:11.188Z,100.00
2023-06-01T04:52:38.469Z,100.00
2023-06-01T04:55:05.862Z,100.00
2023-06-01T04:57:33.420Z,100.00
2023-06-01T04:59:59.867Z,100.00
2023-06-01T05:02:27.220Z,100.00
2023-06-01T05:04:53.721Z,100.00
2023-06-01T05:07:22.240Z,100.00
2023-06-01T05:09:49.446Z,100.00
2023-06-01T05:12:16.007Z,100.00
2023-06-01T05:14:42.547Z,100.00
2023-06-01T05:17:09.051Z,100.00
2023-06-01T05:19:35.671Z,100.00
2023-06-01T05:22:02.340Z,100.00
2023-06-01T05:24:28.951Z,100.00
2023-06-01T05:26:55.538Z,100.00
2023-06-01T05:29:22.424Z,100.00
2023-06-01T05:31:50.656Z,100.00
2023-06-01T05:34:17.197Z,100.00
2023-06-01T05:36:43.859Z,100.00
2023-06-01T05:39:10.341Z,100.00
2023-06-01T05:41:36.781Z,100.00
2023-06-01T05:44:03.723Z,100.00
2023-06-01T05:46:30.310Z,100.00
2023-06-01T05:48:57.112Z,100.00
2023-06-01T05:51:23.611Z,100.00
2023-06-01T05:53:50.105Z,100.00
2023-06-01T05:56:17.577Z,100.00
2023-06-01T05:58:44.734Z,100.00
2023-06-01T06:01:11.245Z,100.00
2023-06-01T06:03:39.353Z,100.00
2023-06-01T06:06:06.105Z,100.00
2023-06-01T06:08:32.583Z,100.00
2023-06-01T06:10:59.087Z,100.00
2023-06-01T06:13:25.794Z,100.00
2023-06-01T06:15:52.316Z,100.00
2023-06-01T06:18:20.484Z,100.00
2023-06-01T06:20:47.646Z,100.00
2023-06-01T06:23:14.194Z,99.64
2023-06-01T06:25:44.045Z,98.48
2023-06-01T06:28:10.850Z,97.44
2023-06-01T06:30:37.278Z,98.86
2023-06-01T06:33:03.887Z,98.51
2023-06-01T06:35:30.574Z,99.81
2023-06-01T06:37:57.066Z,99.33
2023-06-01T06:40:23.589Z,97.88
2023-06-01T06:42:51.350Z,96.73
2023-06-01T06:45:18.327Z,96.43
2023-06-01T06:47:46.578Z,94.64
2023-06-01T06:50:13.870Z,94.71
2023-06-01T06:52:40.371Z,97.09
2023-06-01T06:55:07.526Z,96.92
2023-06-01T06:57:35.175Z,95.58
2023-06-01T07:00:06.221Z,94.21
2023-06-01T07:02:33.057Z,94.29
2023-06-01T07:04:59.584Z,94.70
2023-06-01T07:07:26.208Z,95.36
2023-06-01T07:09:54.051Z,95.33
2023-06-01T07:12:20.534Z,94.70
2023-06-01T07:14:47.025Z,94.33
2023-06-01T07:17:13.546Z,93.34
2023-06-01T07:19:40.046Z,92.05
2023-06-01T07:22:06.923Z,92.85
2023-06-01T07:24:33.446Z,92.90
2023-06-01T07:27:00.762Z,91.96
2023-06-01T07:29:27.719Z,91.68
2023-06-01T07:31:54.281Z,90.03
2023-06-01T07:34:21.080Z,90.47
2023-06-01T07:36:48.174Z,90.79
2023-06-01T07:39:16.038Z,88.43
2023-06-01T07:41:43.552Z,88.42
2023-06-01T07:44:10.025Z,89.04
2023-06-01T07:46:36.642Z,90.00
2023-06-01T07:49:04.195Z,90.78
2023-06-01T07:51:32.214Z,89.00
2023-06-01T07:54:00.895Z,89.33
2023-06-01T07:56:27.760Z,89.72
2023-06-01T07:58:54.769Z,88.12
2023-06-01T08:01:21.417Z,86.41
2023-06-01T08:03:48.043Z,86.39
2023-06-01T08:06:16.213Z,87.09
2023-06-01T08:08:42.774Z,86.71
2023-06-01T08:11:10.093Z,84.95
2023-06-01T08:13:37.318Z,84.77
2023-06-01T08:16:04.879Z,83.72
2023-06-01T08:18:31.703Z,82.62
2023-06-01T08:20:58.220Z,81.67
2023-06-01T08:23:24.706Z,83.14
2023-06-01T08:25:51.535Z,85.31
2023-06-01T08:28:18.052Z,83.42
2023-06-01T08:30:44.524Z,83.10
2023-06-01T08:33:11.163Z,82.40
2023-06-01T08:38:05.105Z,81.63
2023-06-01T08:40:34.521Z,81.80
2023-06-01T08:43:21.451Z,79.51
2023-06-01T08:45:49.184Z,77.98
2023-06-01T08:48:20.515Z,78.61
2023-06-01T08:50:50.341Z,76.86
2023-06-01T08:53:22.467Z,77.96
2023-06-01T08:55:55.591Z,78.25
2023-06-01T08:58:22.119Z,77.63
2023-06-01T09:00:49.983Z,75.57
2023-06-01T09:03:16.845Z,74.60
2023-06-01T09:05:43.769Z,75.32
2023-06-01T09:08:10.817Z,75.11
2023-06-01T09:10:37.277Z,74.41
2023-06-01T09:13:04.383Z,72.46
2023-06-01T09:15:30.860Z,72.94
2023-06-01T09:18:13.761Z,73.49
2023-06-01T09:20:41.938Z,73.56
2023-06-01T09:23:08.394Z,71.81
2023-06-01T09:25:35.392Z,73.39
2023-06-01T09:28:03.005Z,72.82
2023-06-01T09:30:43.464Z,73.09
2023-06-01T09:33:17.103Z,74.15
2023-06-01T09:35:50.525Z,73.34
2023-06-01T09:38:24.999Z,71.78
2023-06-01T09:40:59.740Z,72.43
2023-06-01T09:43:26.504Z,72.14
2023-06-01T09:46:15.248Z,71.52
2023-06-01T09:48:44.875Z,71.68
2023-06-01T09:51:30.022Z,69.65
2023-06-01T09:53:56.469Z,68.83
2023-06-01T09:56:22.913Z,69.83
2023-06-01T09:58:57.498Z,73.26
2023-06-01T10:01:24.200Z,74.04
2023-06-01T10:03:54.612Z,73.72
2023-06-01T10:06:21.427Z,73.48
2023-06-01T10:08:48.706Z,73.34
2023-06-01T10:11:15.148Z,73.90
2023-06-01T10:13:41.798Z,74.35
2023-06-01T10:16:08.356Z,74.13
2023-06-01T10:18:34.934Z,72.29
2023-06-01T10:21:02.466Z,71.86
2023-06-01T10:23:31.835Z,72.52
2023-06-01T10:26:01.593Z,69.34
2023-06-01T10:28:30.351Z,69.71
2023-06-01T10:31:34.418Z,69.72
2023-06-01T10:34:01.053Z,68.17
2023-06-01T10:36:53.458Z,70.21
2023-06-01T10:39:23.986Z,70.56
2023-06-01T10:41:50.577Z,72.73
2023-06-01T10:44:41.796Z,72.97
2023-06-01T10:47:13.952Z,73.99
2023-06-01T10:49:46.333Z,75.70
2023-06-01T10:52:34.128Z,77.39
2023-06-01T10:55:14.234Z,78.64
2023-06-01T10:57:41.707Z,78.20
2023-06-01T11:00:12.127Z,76.04
2023-06-01T11:02:55.088Z,75.46
2023-06-01T11:05:49.839Z,74.44
2023-06-01T11:08:30.497Z,74.29
2023-06-01T11:10:59.137Z,74.35
2023-06-01T11:13:32.711Z,75.03
2023-06-01T11:16:25.923Z,75.44
2023-06-01T11:18:59.918Z,74.93
2023-06-01T11:21:28.999Z,75.74
2023-06-01T11:23:57.136Z,75.04
2023-06-01T11:26:26.301Z,74.39
2023-06-01T11:28:53.778Z,72.87
2023-06-01T11:31:22.703Z,74.64
2023-06-01T11:33:58.015Z,77.68
2023-06-01T11:36:25.763Z,77.21
2023-06-01T11:38:56.945Z,76.30
2023-06-01T11:41:24.374Z,77.27
2023-06-01T11:43:58.022Z,77.98
2023-06-01T11:46:25.139Z,78.22
2023-06-01T11:49:02.778Z,78.37
2023-06-01T11:51:36.430Z,77.97
2023-06-01T11:54:03.664Z,79.55
2023-06-01T11:56:31.609Z,78.44
2023-06-01T11:59:02.027Z,78.99
2023-06-01T12:01:28.991Z,79.13
2023-06-01T12:03:59.058Z,77.74
2023-06-01T12:06:28.737Z,77.15
2023-06-01T12:08:58.365Z,76.08
2023-06-01T12:11:28.651Z,78.33
2023-06-01T12:13:59.138Z,77.74
2023-06-01T12:16:28.731Z,78.75
2023-06-01T12:18:55.908Z,78.08
2023-06-01T12:21:22.565Z,78.63
2023-06-01T12:23:54.862Z,75.35
2023-06-01T12:26:21.356Z,73.14
2023-06-01T12:28:49.288Z,73.58
2023-06-01T12:31:16.705Z,73.39
2023-06-01T12:33:46.862Z,74.11
2023-06-01T12:36:33.181Z,73.50
2023-06-01T12:39:00.714Z,73.61
2023-06-01T12:41:27.811Z,70.89
2023-06-01T12:43:54.968Z,67.07
2023-06-01T12:46:26.061Z,65.71
2023-06-01T12:48:54.834Z,67.20
2023-06-01T12:51:22.407Z,65.75
2023-06-01T12:53:48.985Z,66.36
2023-06-01T12:56:16.268Z,68.32
2023-06-01T12:58:42.798Z,69.81
2023-06-01T13:01:09.303Z,70.53
2023-06-01T13:03:35.870Z,72.40
2023-06-01T13:06:02.436Z,71.17
2023-06-01T13:08:29.132Z,67.06
2023-06-01T13:10:55.690Z,63.73
2023-06-01T13:13:22.394Z,63.92
2023-06-01T13:15:49.364Z,65.23
2023-06-01T13:18:16.621Z,64.97
2023-06-01T13:20:43.435Z,65.61
2023-06-01T13:23:10.810Z,66.81
2023-06-01T13:25:38.248Z,68.66
2023-06-01T13:28:04.749Z,69.22
2023-06-01T13:30:31.637Z,68.31
2023-06-01T13:32:58.405Z,68.90
2023-06-01T13:35:25.214Z,70.99
2023-06-01T13:37:51.680Z,72.24
2023-06-01T13:40:19.433Z,70.42
2023-06-01T13:42:46.387Z,70.62
2023-06-01T13:45:13.037Z,68.86
2023-06-01T13:47:39.686Z,66.73
2023-06-01T13:50:07.093Z,68.33
2023-06-01T13:52:33.544Z,69.10
2023-06-01T13:55:00.028Z,66.60
2023-06-01T13:57:26.504Z,65.83
2023-06-01T13:59:53.002Z,67.86
2023-06-01T14:02:19.515Z,68.53
2023-06-01T14:04:47.433Z,68.47
2023-06-01T14:07:17.613Z,69.93
2023-06-01T14:09:44.085Z,70.61
2023-06-01T14:12:10.651Z,71.66
2023-06-01T14:14:37.119Z,72.39
2023-06-01T14:17:03.591Z,72.04
2023-06-01T14:19:30.138Z,70.03
2023-06-01T14:21:57.303Z,70.28
2023-06-01T14:24:24.116Z,70.37
2023-06-01T14:26:50.716Z,71.63
2023-06-01T14:29:17.198Z,71.95
2023-06-01T14:31:43.754Z,70.08
2023-06-01T14:34:10.235Z,70.35
2023-06-01T14:36:46.852Z,68.10
2023-06-01T14:39:14.462Z,67.50
2023-06-01T14:41:43.352Z,68.34
2023-06-01T14:44:11.414Z,66.99
2023-06-01T14:46:38.226Z,67.39
2023-06-01T14:49:05.319Z,68.72
2023-06-01T14:51:34.082Z,66.59
2023-06-01T14:54:00.562Z,67.09
2023-06-01T14:56:27.170Z,67.32
2023-06-01T14:58:54.460Z,67.75
2023-06-01T15:01:20.969Z,67.46
2023-06-01T15:03:47.645Z,68.23
2023-06-01T15:06:14.287Z,68.02
2023-06-01T15:08:40.788Z,65.72
2023-06-01T15:11:07.260Z,66.17
2023-06-01T15:13:33.723Z,67.92
2023-06-01T15:16:00.224Z,66.31
2023-06-01T15:18:26.762Z,67.04
2023-06-01T15:20:53.216Z,67.95
2023-06-01T15:23:20.005Z,67.51
2023-06-01T15:25:46.515Z,67.94
2023-06-01T15:28:13.058Z,66.26
2023-06-01T15:30:39.562Z,65.93
2023-06-01T15:33:09.172Z,66.47
2023-06-01T15:35:36.132Z,66.55
2023-06-01T15:38:02.859Z,67.13
2023-06-01T15:40:29.546Z,66.18
2023-06-01T15:42:56.060Z,65.40
2023-06-01T15:45:22.521Z,66.85
2023-06-01T15:47:49.030Z,65.63
2023-06-01T15:50:15.850Z,65.21
2023-06-01T15:52:42.409Z,65.67
2023-06-01T15:55:09.073Z,64.72
2023-06-01T15:57:35.666Z,63.79
2023-06-01T16:00:03.718Z,63.90
2023-06-01T16:02:30.461Z,64.75
2023-06-01T16:04:57.099Z,65.18
2023-06-01T16:07:23.685Z,64.67
2023-06-01T16:09:55.064Z,65.11
2023-06-01T16:12:23.186Z,64.49
2023-06-01T16:14:49.684Z,63.53
2023-06-01T16:17:16.192Z,62.91
2023-06-01T16:19:42.891Z,64.15
2023-06-01T16:22:09.697Z,64.55
2023-06-01T16:24:38.184Z,64.75
2023-06-01T16:27:05.554Z,64.79
2023-06-01T16:29:32.352Z,65.13
2023-06-01T16:31:58.877Z,65.91
2023-06-01T16:34:25.524Z,67.35
2023-06-01T16:36:51.967Z,68.04
2023-06-01T16:39:18.549Z,67.90
2023-06-01T16:41:45.136Z,69.11
2023-06-01T16:44:11.602Z,69.52
2023-06-01T16:46:38.159Z,69.16
2023-06-01T16:49:06.132Z,70.47
2023-06-01T16:51:36.960Z,71.11
2023-06-01T16:54:05.351Z,72.31
2023-06-01T16:56:32.219Z,72.61
2023-06-01T16:58:58.701Z,72.84
2023-06-01T17:01:25.218Z,73.48
2023-06-01T17:03:51.798Z,73.40
2023-06-01T17:06:18.698Z,74.17
2023-06-01T17:08:45.229Z,74.87
2023-06-01T17:11:11.708Z,74.80
2023-06-01T17:13:38.175Z,75.46
2023-06-01T17:16:08.240Z,76.49
2023-06-01T17:18:35.457Z,76.41
2023-06-01T17:21:02.044Z,77.03
2023-06-01T17:23:29.745Z,77.69
2023-06-01T17:25:56.261Z,78.43
2023-06-01T17:28:22.760Z,79.09
2023-06-01T17:30:49.253Z,79.58
2023-06-01T17:33:15.986Z,78.96
2023-06-01T17:35:42.481Z,78.95
2023-06-01T17:38:08.927Z,79.87
2023-06-01T17:40:35.361Z,80.34
2023-06-01T17:43:01.788Z,80.71
2023-06-01T17:45:28.297Z,81.08
2023-06-01T17:47:54.923Z,81.49
2023-06-01T17:50:21.475Z,81.27
2023-06-01T17:52:47.952Z,81.50
2023-06-01T17:55:14.449Z,80.05
2023-06-01T17:57:40.936Z,79.62
2023-06-01T18:00:08.463Z,79.63
2023-06-01T18:02:34.986Z,79.59
2023-06-01T18:05:01.441Z,79.89
2023-06-01T18:07:29.346Z,79.72
2023-06-01T18:09:55.928Z,78.74
2023-06-01T18:12:22.369Z,78.09
2023-06-01T18:14:48.837Z,77.29
2023-06-01T18:17:15.410Z,76.64
2023-06-01T18:19:42.315Z,76.23
2023-06-01T18:22:09.890Z,75.38
2023-06-01T18:24:36.516Z,75.40
2023-06-01T18:27:03.014Z,74.82
2023-06-01T18:29:29.455Z,74.05
2023-06-01T18:31:56.296Z,74.34
2023-06-01T18:34:22.731Z,74.45
2023-06-01T18:36:49.189Z,74.67
2023-06-01T18:39:15.951Z,74.93
2023-06-01T18:41:42.439Z,74.95
2023-06-01T18:44:09.678Z,74.82
2023-06-01T18:46:38.477Z,75.57
2023-06-01T18:49:05.657Z,75.77
2023-06-01T18:51:32.718Z,75.44
2023-06-01T18:54:01.148Z,75.71
2023-06-01T18:56:28.077Z,75.57
2023-06-01T18:58:54.983Z,75.62
2023-06-01T19:01:21.751Z,76.37
2023-06-01T19:03:48.959Z,76.74
2023-06-01T19:06:15.515Z,77.46
2023-06-01T19:08:42.722Z,77.47
2023-06-01T19:11:09.690Z,78.12
2023-06-01T19:13:44.372Z,77.66
2023-06-01T19:16:21.617Z,78.39
2023-06-01T19:18:49.713Z,78.90
2023-06-01T19:21:32.419Z,79.29
2023-06-01T19:24:01.453Z,79.15
2023-06-01T19:26:30.136Z,78.66
2023-06-01T19:29:01.841Z,78.31
2023-06-01T19:31:34.183Z,78.99
2023-06-01T19:34:01.494Z,79.50
2023-06-01T19:36:43.198Z,80.35
2023-06-01T19:39:09.849Z,79.69
2023-06-01T19:41:36.296Z,79.84
2023-06-01T19:44:03.006Z,79.62
2023-06-01T19:46:29.539Z,79.90
2023-06-01T19:49:00.777Z,79.57
2023-06-01T19:51:31.489Z,79.92
2023-06-01T19:53:58.779Z,80.15
2023-06-01T19:56:41.320Z,80.31
2023-06-01T19:59:11.749Z,80.26
2023-06-01T20:01:39.757Z,80.68
2023-06-01T20:04:06.929Z,81.27
2023-06-01T20:06:34.526Z,81.73
2023-06-01T20:09:11.791Z,81.83
2023-06-01T20:11:40.750Z,81.84
2023-06-01T20:14:29.864Z,82.43
2023-06-01T20:16:57.643Z,82.57
2023-06-01T20:19:24.691Z,82.66
2023-06-01T20:21:53.173Z,82.85
2023-06-01T20:24:24.819Z,82.51
2023-06-01T20:26:56.383Z,82.11
2023-06-01T20:29:22.924Z,81.91
2023-06-01T20:31:49.451Z,81.95
2023-06-01T20:34:17.126Z,81.63
2023-06-01T20:36:43.619Z,81.50
2023-06-01T20:39:10.351Z,81.50
2023-06-01T20:41:37.132Z,81.03
2023-06-01T20:44:03.909Z,81.36
2023-06-01T20:46:32.837Z,81.20
2023-06-01T20:49:01.826Z,80.66
2023-06-01T20:51:28.442Z,80.72
2023-06-01T20:54:01.774Z,80.17
2023-06-01T20:56:35.424Z,80.47
2023-06-01T20:59:11.889Z,79.88
2023-06-01T21:01:43.192Z,80.04
2023-06-01T21:04:12.238Z,80.66
2023-06-01T21:06:39.101Z,80.69
2023-06-01T21:09:09.100Z,81.37
2023-06-01T21:11:36.305Z,81.47
2023-06-01T21:14:02.925Z,81.08
2023-06-01T21:16:29.552Z,81.44
2023-06-01T21:18:56.301Z,81.11
2023-06-01T21:21:22.868Z,81.30
2023-06-01T21:23:49.492Z,81.35
2023-06-01T21:26:16.707Z,81.26
2023-06-01T21:28:43.583Z,80.74
2023-06-01T21:31:10.393Z,80.85
2023-06-01T21:33:37.903Z,81.91
2023-06-01T21:36:04.656Z,81.75
2023-06-01T21:38:31.207Z,81.59
2023-06-01T21:40:57.897Z,81.78
2023-06-01T21:43:24.639Z,81.70
2023-06-01T21:45:51.292Z,81.77
2023-06-01T21:48:18.965Z,82.16
2023-06-01T21:50:47.761Z,82.61
2023-06-01T21:53:16.146Z,82.40
2023-06-01T21:55:43.500Z,82.01
2023-06-01T21:58:10.288Z,81.98
2023-06-01T22:00:36.889Z,81.46
2023-06-01T22:03:03.931Z,81.39
2023-06-01T22:05:32.568Z,81.28
2023-06-01T22:07:59.093Z,80.80
2023-06-01T22:10:25.631Z,79.79
2023-06-01T22:12:52.163Z,78.82
2023-06-01T22:15:18.813Z,78.51
2023-06-01T22:17:45.475Z,77.93
2023-06-01T22:20:12.274Z,78.66
2023-06-01T22:22:39.284Z,78.00
2023-06-01T22:25:06.590Z,77.86
2023-06-01T22:27:33.168Z,77.68
2023-06-01T22:29:59.923Z,77.27
2023-06-01T22:32:26.556Z,77.52
2023-06-01T22:34:54.259Z,77.36
2023-06-01T22:37:22.726Z,77.03
2023-06-01T22:39:50.390Z,77.41
2023-06-01T22:42:17.579Z,77.47
2023-06-01T22:44:44.860Z,78.12
2023-06-01T22:47:11.711Z,77.91
2023-06-01T22:49:38.368Z,78.31
2023-06-01T22:52:05.641Z,78.26
2023-06-01T22:54:32.261Z,78.99
2023-06-01T22:56:59.190Z,78.74
2023-06-01T22:59:25.894Z,78.66
2023-06-01T23:01:52.495Z,78.35
2023-06-01T23:04:24.323Z,78.42
2023-06-01T23:06:54.972Z,78.40
2023-06-01T23:09:22.145Z,78.36
2023-06-01T23:11:52.575Z,78.04
2023-06-01T23:14:26.691Z,78.38
2023-06-01T23:16:53.695Z,78.08
2023-06-01T23:19:21.406Z,78.28
2023-06-01T23:21:49.492Z,77.77
2023-06-01T23:24:18.351Z,78.43
2023-06-01T23:26:44.995Z,78.31
2023-06-01T23:29:11.455Z,78.37
2023-06-01T23:31:38.030Z,78.14
2023-06-01T23:34:07.721Z,77.49
2023-06-01T23:36:37.669Z,77.27
2023-06-01T23:39:06.921Z,77.48
2023-06-01T23:41:34.596Z,77.58
2023-06-01T23:44:01.386Z,77.62
2023-06-01T23:46:29.499Z,77.69
2023-06-01T23:48:56.964Z,78.14
2023-06-01T23:51:23.481Z,77.75
2023-06-01T23:53:49.945Z,77.77
2023-06-01T23:56:16.793Z,77.26
2023-06-01T23:58:43.322Z,77.72
